Aviation Digital Data Service (ADDS)

Output produced by TAFs form (1255 UTC 30 March 2015)
found at http://aviationweather.gov/adds/tafs/
 
KROW 301120Z 3012/3112 16008KT P6SM BKN250 
     FM302000 17010KT P6SM SCT120 BKN200 
     FM310400 23006KT P6SM FEW120 SCT200